Time;durP1;ratioP1;P1;durP2;ratioP2;P2;SDS_P1;SDS_P2;PMS_P1;PMS_P2;Temp;Humidity;BMP_temperature;BMP_pressure;BME280_temperature;BME280_humidity;BME280_pressure;Samples;Min_cycle;Max_cycle;Signal;HPM_P1;HPM_P2
2020/12/15 00:00:09;;;;;;;13.63;3.37;;;8.00;99.90;;;;;;5095706;28;20074;-61
2020/12/15 00:02:35;;;;;;;12.40;2.80;;;8.00;99.90;;;;;;5096309;28;20024;-60
2020/12/15 00:05:02;;;;;;;15.57;4.43;;;8.00;99.90;;;;;;5078002;28;20029;-64
2020/12/15 00:07:27;;;;;;;9.03;2.50;;;7.90;99.90;;;;;;5077940;28;20024;-61
2020/12/15 00:09:53;;;;;;;13.93;3.90;;;7.90;99.90;;;;;;5077387;28;20031;-61
2020/12/15 00:12:18;;;;;;;13.07;2.80;;;7.80;99.90;;;;;;5096324;28;20027;-59
2020/12/15 00:14:44;;;;;;;12.23;2.73;;;7.90;99.90;;;;;;5095869;28;20080;-60
2020/12/15 00:17:10;;;;;;;16.97;3.00;;;7.90;99.90;;;;;;5101718;28;20031;-60
2020/12/15 00:19:35;;;;;;;17.33;2.90;;;7.80;99.90;;;;;;5115591;28;20024;-61
2020/12/15 00:22:01;;;;;;;8.60;2.37;;;7.80;99.90;;;;;;5115017;28;20023;-61
2020/12/15 00:24:27;;;;;;;16.50;2.57;;;7.80;99.90;;;;;;5099702;28;20031;-61
2020/12/15 00:26:52;;;;;;;16.67;2.77;;;7.80;99.90;;;;;;5099419;28;20035;-60
2020/12/15 00:29:18;;;;;;;9.10;3.17;;;7.90;99.90;;;;;;5100083;28;20027;-60
2020/12/15 00:31:44;;;;;;;11.27;2.93;;;7.90;99.90;;;;;;5099286;28;20063;-60
2020/12/15 00:34:11;;;;;;;11.20;3.50;;;7.90;99.90;;;;;;5099400;28;20024;-60
2020/12/15 00:36:36;;;;;;;17.23;2.73;;;7.90;99.90;;;;;;5099468;28;20086;-60
2020/12/15 00:39:02;;;;;;;11.47;2.67;;;7.80;99.90;;;;;;5097584;28;20052;-60
2020/12/15 00:41:28;;;;;;;5.43;2.00;;;7.80;99.90;;;;;;5099588;28;20069;-60
2020/12/15 00:43:54;;;;;;;7.60;2.30;;;7.80;99.90;;;;;;5099528;28;20028;-60
2020/12/15 00:46:20;;;;;;;10.10;2.87;;;7.90;99.90;;;;;;5099786;28;20112;-60
2020/12/15 00:48:47;;;;;;;5.33;2.27;;;7.90;99.90;;;;;;5099691;28;20028;-60
2020/12/15 00:51:15;;;;;;;7.87;2.33;;;8.00;99.90;;;;;;5098981;28;20035;-60
2020/12/15 00:53:40;;;;;;;8.50;2.40;;;8.00;99.90;;;;;;5099310;28;20380;-60
2020/12/15 00:56:06;;;;;;;10.13;1.73;;;7.90;99.90;;;;;;5080843;28;20033;-60
2020/12/15 00:58:35;;;;;;;8.87;3.30;;;7.80;99.90;;;;;;5099894;28;20028;-60
2020/12/15 01:01:01;;;;;;;12.53;2.13;;;7.80;99.90;;;;;;5098837;28;20069;-60
2020/12/15 01:03:27;;;;;;;8.43;2.53;;;7.80;99.90;;;;;;5099654;28;20028;-60
2020/12/15 01:05:52;;;;;;;9.67;3.43;;;7.80;99.90;;;;;;5099518;28;20442;-60
2020/12/15 01:08:18;;;;;;;8.20;1.63;;;7.80;99.90;;;;;;5105008;28;20038;-60
2020/12/15 01:10:43;;;;;;;9.07;1.83;;;7.70;99.90;;;;;;5101381;28;20048;-60
2020/12/15 01:13:09;;;;;;;11.53;1.93;;;7.70;99.90;;;;;;5119248;28;20378;-60
2020/12/15 01:15:35;;;;;;;7.80;2.83;;;7.70;99.90;;;;;;5119403;28;20437;-60
2020/12/15 01:18:00;;;;;;;7.83;2.10;;;7.60;99.90;;;;;;5118619;28;20023;-60
2020/12/15 01:20:26;;;;;;;5.80;2.27;;;7.60;99.90;;;;;;5100481;28;20019;-61
2020/12/15 01:22:51;;;;;;;8.17;2.90;;;7.60;99.90;;;;;;5109251;28;20028;-60
2020/12/15 01:25:17;;;;;;;16.10;2.23;;;7.40;99.90;;;;;;5081376;28;20032;-60
2020/12/15 01:27:43;;;;;;;7.63;2.40;;;7.40;99.90;;;;;;5099636;28;20034;-60
2020/12/15 01:30:08;;;;;;;10.33;2.47;;;7.40;99.90;;;;;;5099332;28;20032;-60
2020/12/15 01:32:34;;;;;;;7.30;2.10;;;7.40;99.90;;;;;;5080501;28;20032;-60
2020/12/15 01:35:00;;;;;;;13.67;2.93;;;7.40;99.90;;;;;;5097089;28;20052;-60
2020/12/15 01:37:25;;;;;;;8.83;1.83;;;7.40;99.90;;;;;;5098777;28;20024;-60
2020/12/15 01:39:51;;;;;;;8.23;2.27;;;7.40;99.90;;;;;;5098575;28;20024;-60
2020/12/15 01:42:17;;;;;;;6.70;2.23;;;7.40;99.90;;;;;;5098500;28;20024;-60
2020/12/15 01:44:42;;;;;;;7.90;1.97;;;7.40;99.90;;;;;;5098499;28;20168;-60
2020/12/15 01:47:09;;;;;;;21.00;2.40;;;7.30;99.90;;;;;;5098090;28;20036;-60
2020/12/15 01:49:35;;;;;;;9.53;1.70;;;7.30;99.90;;;;;;5098254;28;20334;-60
2020/12/15 01:52:00;;;;;;;8.43;2.30;;;7.20;99.90;;;;;;5097937;28;20024;-60
2020/12/15 01:54:26;;;;;;;9.33;1.97;;;7.20;99.90;;;;;;5098350;28;20039;-60
2020/12/15 01:56:54;;;;;;;6.87;1.80;;;7.20;99.90;;;;;;5098393;28;20024;-60
2020/12/15 01:59:22;;;;;;;13.60;2.57;;;7.20;99.90;;;;;;5098081;28;20023;-60
2020/12/15 02:01:47;;;;;;;8.87;1.80;;;7.20;99.90;;;;;;5080843;28;20434;-60
2020/12/15 02:04:14;;;;;;;12.50;2.13;;;7.10;99.90;;;;;;5097284;28;20032;-60
2020/12/15 02:06:46;;;;;;;10.47;1.77;;;7.10;99.90;;;;;;5080083;28;20020;-60
2020/12/15 02:09:11;;;;;;;8.57;2.00;;;7.10;99.90;;;;;;5097787;28;20055;-61
2020/12/15 02:11:37;;;;;;;5.00;2.37;;;7.20;99.90;;;;;;5098188;28;20044;-60
2020/12/15 02:14:03;;;;;;;12.53;2.73;;;7.10;99.90;;;;;;5097231;28;20028;-60
2020/12/15 02:16:30;;;;;;;11.67;2.00;;;7.10;99.90;;;;;;5097788;28;20110;-60
2020/12/15 02:18:56;;;;;;;11.10;2.20;;;7.20;99.90;;;;;;5097044;28;20059;-60
2020/12/15 02:21:22;;;;;;;9.47;1.90;;;7.20;99.90;;;;;;5097644;28;20406;-60
2020/12/15 02:23:47;;;;;;;7.07;2.13;;;7.20;99.90;;;;;;5104697;28;20032;-60
2020/12/15 02:26:14;;;;;;;6.67;1.70;;;7.20;99.90;;;;;;5097474;28;20043;-60
2020/12/15 02:28:41;;;;;;;6.30;1.67;;;7.20;99.90;;;;;;5097714;28;20043;-60
2020/12/15 02:31:06;;;;;;;7.37;2.90;;;7.20;99.90;;;;;;5097395;28;20055;-60
2020/12/15 02:33:32;;;;;;;9.60;2.00;;;7.30;99.90;;;;;;5097231;28;20438;-60
2020/12/15 02:35:58;;;;;;;13.33;2.47;;;7.30;99.90;;;;;;5097160;28;20067;-60
2020/12/15 02:38:24;;;;;;;7.30;1.90;;;7.30;99.90;;;;;;5097326;28;20043;-60
2020/12/15 02:40:50;;;;;;;9.67;1.57;;;7.30;99.90;;;;;;5097316;28;20338;-60
2020/12/15 02:43:15;;;;;;;8.00;2.20;;;7.30;99.90;;;;;;5097200;28;20035;-60
2020/12/15 02:45:41;;;;;;;17.20;2.70;;;7.40;99.90;;;;;;5096795;28;20334;-60
2020/12/15 02:48:07;;;;;;;6.17;1.50;;;7.40;99.90;;;;;;5097028;28;20039;-60
2020/12/15 02:50:32;;;;;;;13.10;2.40;;;7.40;99.90;;;;;;5096520;28;20028;-60
2020/12/15 02:52:58;;;;;;;9.57;1.70;;;7.30;99.90;;;;;;5096962;28;20079;-60
2020/12/15 02:55:24;;;;;;;6.73;2.17;;;7.40;99.90;;;;;;5096619;28;20101;-60
2020/12/15 02:57:50;;;;;;;9.00;2.60;;;7.40;99.90;;;;;;5097077;28;20333;-60
2020/12/15 03:00:18;;;;;;;9.13;2.10;;;7.40;99.90;;;;;;5096473;28;20406;-60
2020/12/15 03:02:46;;;;;;;14.00;2.77;;;7.30;99.90;;;;;;5096876;28;20114;-60
2020/12/15 03:05:12;;;;;;;8.27;1.63;;;7.30;99.90;;;;;;5078803;28;20043;-60
2020/12/15 03:07:38;;;;;;;8.97;1.60;;;7.30;99.90;;;;;;5097026;28;20053;-60
2020/12/15 03:10:08;;;;;;;7.93;1.40;;;7.30;99.90;;;;;;5096778;28;20028;-60
2020/12/15 03:12:34;;;;;;;7.27;2.57;;;7.30;99.90;;;;;;5097126;28;20024;-60
2020/12/15 03:14:59;;;;;;;10.37;2.90;;;7.20;99.90;;;;;;5078583;28;20020;-61
2020/12/15 03:17:26;;;;;;;11.47;1.87;;;7.10;99.90;;;;;;5096008;28;20073;-61
2020/12/15 03:19:51;;;;;;;10.20;2.70;;;7.00;99.90;;;;;;5078239;28;20035;-61
2020/12/15 03:22:17;;;;;;;7.90;2.47;;;6.90;99.90;;;;;;5100161;28;20334;-61
2020/12/15 03:24:43;;;;;;;8.87;2.30;;;7.00;99.90;;;;;;5096830;28;20101;-61
2020/12/15 03:27:09;;;;;;;10.10;2.43;;;7.00;99.90;;;;;;5078376;28;20426;-61
2020/12/15 03:29:35;;;;;;;11.87;2.37;;;7.00;99.90;;;;;;5096353;28;20036;-61
2020/12/15 03:32:01;;;;;;;12.87;3.33;;;6.90;99.90;;;;;;5095775;28;20442;-61
2020/12/15 03:34:26;;;;;;;7.33;2.47;;;7.00;99.90;;;;;;5096003;28;20079;-61
2020/12/15 03:36:52;;;;;;;9.63;2.53;;;6.90;99.90;;;;;;5078431;28;20036;-61
2020/12/15 03:39:18;;;;;;;9.33;2.17;;;7.00;99.90;;;;;;5095997;28;20119;-60
2020/12/15 03:41:44;;;;;;;7.90;1.97;;;7.00;99.90;;;;;;5096206;28;20381;-61
2020/12/15 03:44:09;;;;;;;8.77;1.70;;;7.00;99.90;;;;;;5096616;28;20035;-60
2020/12/15 03:46:35;;;;;;;11.20;2.63;;;7.00;99.90;;;;;;5096169;28;20035;-60
2020/12/15 03:49:01;;;;;;;10.47;2.07;;;7.00;99.90;;;;;;5096492;28;20043;-60
2020/12/15 03:51:26;;;;;;;8.80;2.47;;;7.10;99.90;;;;;;5095709;28;20123;-60
2020/12/15 03:53:52;;;;;;;11.47;3.90;;;7.10;99.90;;;;;;5078316;28;20063;-61
2020/12/15 03:56:18;;;;;;;7.43;2.40;;;7.10;99.90;;;;;;5095260;28;20039;-61
2020/12/15 03:58:43;;;;;;;13.57;2.30;;;7.10;99.90;;;;;;5102295;28;20440;-61
2020/12/15 04:01:09;;;;;;;9.90;1.50;;;7.10;99.90;;;;;;5119959;28;20360;-61
2020/12/15 04:03:35;;;;;;;6.00;1.70;;;7.20;99.90;;;;;;5101784;28;20216;-60
2020/12/15 04:06:01;;;;;;;12.23;3.20;;;7.20;99.90;;;;;;5116972;28;20027;-61
2020/12/15 04:08:26;;;;;;;9.47;1.80;;;7.20;99.90;;;;;;5116355;28;20031;-61
2020/12/15 04:10:52;;;;;;;12.97;2.47;;;7.20;99.90;;;;;;5098343;28;20322;-61
2020/12/15 04:13:19;;;;;;;13.70;3.23;;;7.10;99.90;;;;;;5116020;28;20401;-61
2020/12/15 04:15:47;;;;;;;6.53;2.00;;;7.10;99.90;;;;;;5115820;28;20031;-61
2020/12/15 04:18:13;;;;;;;9.53;2.70;;;7.00;99.90;;;;;;5116304;28;20334;-61
2020/12/15 04:20:39;;;;;;;7.50;2.60;;;6.90;99.90;;;;;;5115259;28;20027;-61
2020/12/15 04:23:05;;;;;;;11.40;2.47;;;6.80;99.90;;;;;;5104954;28;20032;-61
2020/12/15 04:25:31;;;;;;;7.80;2.23;;;7.00;99.90;;;;;;5095532;28;20105;-61
2020/12/15 04:27:56;;;;;;;13.00;2.47;;;7.20;99.90;;;;;;5095930;28;20054;-61
2020/12/15 04:30:22;;;;;;;11.03;3.13;;;7.40;99.90;;;;;;5077829;28;20036;-61
2020/12/15 04:32:48;;;;;;;13.37;2.43;;;7.50;99.90;;;;;;5095688;28;20086;-61
2020/12/15 04:35:14;;;;;;;9.67;2.33;;;7.50;99.90;;;;;;5095552;28;20101;-61
2020/12/15 04:37:40;;;;;;;8.13;2.30;;;7.50;99.90;;;;;;5095361;28;20032;-61
2020/12/15 04:40:06;;;;;;;12.93;3.07;;;7.50;99.90;;;;;;5077752;28;20035;-61
2020/12/15 04:42:33;;;;;;;8.97;2.50;;;7.50;99.90;;;;;;5095522;28;20024;-61
2020/12/15 04:44:59;;;;;;;11.70;3.70;;;7.60;99.90;;;;;;5095933;28;20043;-60
2020/12/15 04:47:34;;;;;;;13.30;2.10;;;7.60;99.90;;;;;;5095519;28;20036;-60
2020/12/15 04:50:07;;;;;;;7.23;2.33;;;7.60;99.90;;;;;;5103142;28;20111;-60
2020/12/15 04:52:55;;;;;;;13.85;2.38;;;7.60;99.90;;;;;;5116330;28;20027;-60
2020/12/15 04:55:21;;;;;;;14.80;3.00;;;7.60;99.90;;;;;;5116200;28;20019;-60
2020/12/15 04:57:47;;;;;;;11.57;2.03;;;7.60;99.90;;;;;;5116135;28;20482;-60
2020/12/15 05:00:15;;;;;;;13.03;3.43;;;7.60;99.90;;;;;;5115917;28;20110;-60
2020/12/15 05:02:43;;;;;;;12.17;2.53;;;7.60;99.90;;;;;;5080821;28;20028;-60
2020/12/15 05:05:09;;;;;;;10.80;1.90;;;7.60;99.90;;;;;;5097175;28;20031;-60
2020/12/15 05:07:43;;;;;;;10.40;2.37;;;7.60;99.90;;;;;;5116289;28;20023;-60
2020/12/15 05:10:12;;;;;;;7.30;2.03;;;7.60;99.90;;;;;;5119247;28;20030;-60
2020/12/15 05:12:37;;;;;;;6.63;1.67;;;7.50;99.90;;;;;;5119403;28;20311;-60
2020/12/15 05:15:11;;;;;;;14.73;3.30;;;7.50;99.90;;;;;;5118903;28;20115;-61
2020/12/15 05:17:39;;;;;;;15.43;3.37;;;7.40;99.90;;;;;;5119729;28;20034;-61
2020/12/15 05:20:05;;;;;;;14.33;3.33;;;7.10;99.90;;;;;;5118685;28;20031;-60
2020/12/15 05:22:45;;;;;;;8.43;2.20;;;6.90;99.90;;;;;;5112561;28;20028;-60
2020/12/15 05:25:23;;;;;;;10.67;3.33;;;6.80;99.90;;;;;;5080188;28;20077;-60
2020/12/15 05:27:49;;;;;;;9.53;2.73;;;6.70;99.90;;;;;;5099301;28;20077;-60
2020/12/15 05:30:15;;;;;;;9.50;2.87;;;6.60;99.90;;;;;;5098574;28;20031;-60
2020/12/15 05:32:54;;;;;;;15.73;3.43;;;6.50;99.90;;;;;;5098626;28;20450;-60
2020/12/15 05:35:28;;;;;;;9.40;3.10;;;6.40;99.90;;;;;;5079571;28;20401;-60
2020/12/15 05:38:03;;;;;;;14.07;3.10;;;6.30;99.90;;;;;;5098861;28;20026;-60
2020/12/15 05:40:29;;;;;;;10.87;3.30;;;6.20;99.90;;;;;;5098204;28;20020;-60
2020/12/15 05:42:59;;;;;;;10.00;2.47;;;6.30;99.90;;;;;;5098696;28;20089;-60
2020/12/15 05:45:27;;;;;;;10.50;2.83;;;6.30;99.90;;;;;;5097884;28;20396;-60
2020/12/15 05:48:04;;;;;;;7.63;2.33;;;6.30;99.90;;;;;;5098303;28;20070;-60
2020/12/15 05:50:30;;;;;;;8.83;2.20;;;6.40;99.90;;;;;;5097945;28;20348;-61
2020/12/15 05:52:57;;;;;;;12.40;3.43;;;6.40;99.90;;;;;;5098095;28;20135;-60
2020/12/15 05:55:23;;;;;;;20.00;2.90;;;6.30;99.90;;;;;;5079851;28;20056;-60
2020/12/15 05:57:51;;;;;;;8.43;3.23;;;6.30;99.90;;;;;;5097910;28;20113;-60
2020/12/15 06:00:17;;;;;;;8.43;2.47;;;6.50;99.90;;;;;;5098640;28;20024;-60
2020/12/15 06:02:43;;;;;;;7.73;1.90;;;6.50;99.90;;;;;;5097606;28;20060;-60
2020/12/15 06:05:10;;;;;;;9.80;2.87;;;6.50;99.90;;;;;;5080167;28;20404;-60
2020/12/15 06:07:36;;;;;;;7.17;2.97;;;6.50;99.90;;;;;;5097556;28;20425;-60
2020/12/15 06:10:04;;;;;;;8.43;2.27;;;6.40;99.90;;;;;;5097801;28;20278;-60
2020/12/15 06:12:30;;;;;;;10.53;2.27;;;6.30;99.90;;;;;;5098052;28;20103;-60
2020/12/15 06:14:55;;;;;;;11.10;2.23;;;6.30;99.90;;;;;;5079884;28;20114;-60
2020/12/15 06:17:22;;;;;;;7.50;2.10;;;6.30;99.90;;;;;;5097752;28;20032;-61
2020/12/15 06:19:55;;;;;;;28.00;4.07;;;6.20;99.90;;;;;;5096227;28;20337;-60
2020/12/15 06:22:25;;;;;;;11.25;2.30;;;6.30;99.90;;;;;;5102873;28;20031;-60
2020/12/15 06:24:59;;;;;;;12.03;3.40;;;6.30;99.90;;;;;;5082560;28;20330;-60
2020/12/15 06:27:35;;;;;;;12.47;4.07;;;6.30;99.90;;;;;;5097745;28;20020;-60
2020/12/15 06:30:02;;;;;;;9.00;2.63;;;6.40;99.90;;;;;;5078999;28;20414;-60
2020/12/15 06:32:28;;;;;;;16.13;3.13;;;6.40;99.90;;;;;;5097100;28;20039;-60
2020/12/15 06:34:54;;;;;;;9.73;2.37;;;6.40;99.90;;;;;;5096979;28;20056;-60
2020/12/15 06:37:22;;;;;;;8.07;2.40;;;6.50;99.90;;;;;;5079676;28;20438;-60
2020/12/15 06:40:03;;;;;;;14.03;3.47;;;6.60;99.90;;;;;;5079461;28;20027;-61
2020/12/15 06:42:29;;;;;;;10.13;2.73;;;6.60;99.90;;;;;;5104766;28;20016;-61
2020/12/15 06:45:13;;;;;;;6.50;2.67;;;6.70;99.90;;;;;;5117346;28;20034;-60
2020/12/15 06:47:39;;;;;;;11.82;2.25;;;6.70;99.90;;;;;;5117875;28;20035;-60
2020/12/15 06:50:17;;;;;;;9.10;2.40;;;6.70;99.90;;;;;;5117369;28;20031;-60
2020/12/15 06:52:43;;;;;;;11.50;2.30;;;6.70;99.90;;;;;;5117535;28;20027;-60
2020/12/15 06:55:08;;;;;;;7.93;2.77;;;6.70;99.90;;;;;;5117302;28;20028;-60
2020/12/15 06:57:36;;;;;;;8.50;1.97;;;6.60;99.90;;;;;;5117415;28;20070;-59
2020/12/15 07:00:07;;;;;;;6.13;2.30;;;6.60;99.90;;;;;;5117098;28;20020;-60
2020/12/15 07:02:32;;;;;;;9.43;2.60;;;6.60;99.90;;;;;;5117434;28;20015;-60
2020/12/15 07:05:23;;;;;;;15.20;2.93;;;6.60;99.90;;;;;;5117151;28;20346;-60
2020/12/15 07:07:53;;;;;;;16.27;2.80;;;6.70;99.90;;;;;;5116968;28;20023;-60
2020/12/15 07:10:20;;;;;;;14.00;3.40;;;6.70;99.90;;;;;;5117363;28;20032;-60
2020/12/15 07:12:48;;;;;;;8.20;2.27;;;6.60;99.90;;;;;;5112839;28;20098;-60
2020/12/15 07:15:17;;;;;;;11.07;2.43;;;6.50;99.90;;;;;;5096607;28;20103;-60
2020/12/15 07:17:53;;;;;;;10.60;2.73;;;6.30;99.90;;;;;;5096550;28;20465;-60
2020/12/15 07:20:20;;;;;;;9.87;2.60;;;6.30;99.90;;;;;;5096118;28;20023;-60
2020/12/15 07:22:46;;;;;;;8.17;2.70;;;6.30;99.90;;;;;;5102221;28;20019;-60
2020/12/15 07:25:12;;;;;;;13.13;2.53;;;6.30;99.90;;;;;;5078261;28;20032;-60
2020/12/15 07:27:39;;;;;;;10.73;2.67;;;6.30;99.90;;;;;;5096479;28;20488;-60
2020/12/15 07:30:09;;;;;;;13.20;3.00;;;6.20;99.90;;;;;;5096363;28;20031;-60
2020/12/15 07:32:36;;;;;;;16.47;3.60;;;6.20;99.90;;;;;;5096053;28;20501;-60
2020/12/15 07:35:13;;;;;;;12.83;2.83;;;6.30;99.90;;;;;;5095793;28;20055;-60
2020/12/15 07:37:40;;;;;;;11.63;4.40;;;6.40;99.90;;;;;;5096370;28;20020;-60
2020/12/15 07:40:09;;;;;;;12.90;2.97;;;6.50;99.90;;;;;;5094358;28;20040;-60
2020/12/15 07:42:34;;;;;;;13.27;3.80;;;6.60;99.90;;;;;;5096193;28;20321;-60
2020/12/15 07:45:03;;;;;;;13.30;2.70;;;6.70;99.90;;;;;;5095526;28;20042;-60
2020/12/15 07:47:37;;;;;;;11.63;2.50;;;6.70;99.90;;;;;;5096427;28;20046;-60
2020/12/15 07:50:02;;;;;;;15.20;2.80;;;6.70;99.90;;;;;;5077591;28;20028;-59
2020/12/15 07:52:33;;;;;;;10.10;2.50;;;6.70;99.90;;;;;;5096350;28;20028;-60
2020/12/15 07:55:10;;;;;;;10.70;2.13;;;6.70;99.90;;;;;;5096002;28;20072;-60
2020/12/15 07:57:38;;;;;;;10.63;3.60;;;6.70;99.90;;;;;;5096203;28;20077;-60
2020/12/15 08:00:22;;;;;;;9.77;3.10;;;6.70;99.90;;;;;;5095503;28;20027;-60
2020/12/15 08:02:48;;;;;;;9.93;2.23;;;6.70;99.90;;;;;;5096185;28;20016;-60
2020/12/15 08:05:16;;;;;;;11.20;2.37;;;6.70;99.90;;;;;;5095969;28;20059;-60
2020/12/15 08:07:47;;;;;;;5.10;2.03;;;6.70;99.90;;;;;;5097623;28;20020;-61
2020/12/15 08:10:32;;;;;;;12.07;4.53;;;6.60;99.90;;;;;;5096287;28;20012;-61
2020/12/15 08:13:03;;;;;;;19.47;3.47;;;6.60;99.90;;;;;;5096068;28;20099;-61
2020/12/15 08:15:37;;;;;;;13.43;4.33;;;6.60;99.90;;;;;;5095669;28;20494;-61
2020/12/15 08:18:03;;;;;;;;;;;6.50;99.90;;;;;;5096320;28;20394;-61
2020/12/15 08:20:30;;;;;;;8.83;2.60;;;6.60;99.90;;;;;;5095343;28;19989;-61
2020/12/15 08:23:07;;;;;;;7.43;2.20;;;6.60;99.90;;;;;;5098821;28;20012;-61
2020/12/15 08:25:43;;;;;;;13.90;2.83;;;6.60;99.90;;;;;;5095350;28;20016;-61
2020/12/15 08:28:13;;;;;;;9.30;3.83;;;6.50;99.90;;;;;;5095568;28;20091;-60
2020/12/15 08:30:40;;;;;;;10.37;3.10;;;6.50;99.90;;;;;;5095275;28;20354;-61
2020/12/15 08:33:06;;;;;;;13.63;3.70;;;6.50;99.90;;;;;;5101228;28;20039;-60
2020/12/15 08:35:32;;;;;;;12.37;4.47;;;6.50;99.90;;;;;;5115372;28;20051;-61
2020/12/15 08:38:00;;;;;;;18.33;5.17;;;6.50;99.90;;;;;;5115387;28;20019;-61
2020/12/15 08:40:27;;;;;;;10.27;3.50;;;6.60;99.90;;;;;;5115743;28;20358;-61
2020/12/15 08:43:03;;;;;;;11.83;6.03;;;6.50;99.90;;;;;;5116852;28;20372;-61
2020/12/15 08:45:30;;;;;;;13.43;4.40;;;6.60;99.90;;;;;;5119999;28;20027;-61
2020/12/15 08:47:57;;;;;;;15.53;3.70;;;6.60;99.90;;;;;;5119171;28;20027;-61
2020/12/15 08:50:30;;;;;;;13.97;3.73;;;6.80;99.90;;;;;;5101181;28;20334;-61
2020/12/15 08:53:06;;;;;;;9.07;3.08;;;6.90;99.90;;;;;;5101065;28;20084;-59
2020/12/15 08:55:36;;;;;;;7.97;3.87;;;6.90;99.90;;;;;;5120046;28;20128;-59
2020/12/15 08:58:06;;;;;;;13.47;4.10;;;7.00;99.90;;;;;;5119418;28;20076;-60
2020/12/15 09:00:36;;;;;;;14.63;3.60;;;7.00;99.90;;;;;;5119239;28;20012;-59
2020/12/15 09:03:16;;;;;;;11.00;3.50;;;7.20;99.90;;;;;;5118878;28;20035;-60
2020/12/15 09:05:49;;;;;;;9.07;2.77;;;7.20;99.90;;;;;;5119902;28;20409;-59
2020/12/15 09:08:15;;;;;;;17.23;3.40;;;7.40;99.90;;;;;;5114809;28;20072;-60
2020/12/15 09:10:41;;;;;;;8.03;2.93;;;7.40;99.90;;;;;;5105578;28;20337;-59
2020/12/15 09:13:06;;;;;;;6.10;1.60;;;7.60;99.90;;;;;;5118665;28;20123;-60
2020/12/15 09:15:32;;;;;;;12.13;2.80;;;7.80;99.90;;;;;;5100133;28;20323;-59
2020/12/15 09:17:58;;;;;;;7.13;1.80;;;7.90;99.90;;;;;;5117774;28;20114;-60
2020/12/15 09:20:27;;;;;;;11.33;2.47;;;7.90;99.90;;;;;;5115949;28;20032;-60
2020/12/15 09:22:54;;;;;;;9.03;2.97;;;8.10;99.90;;;;;;5112835;28;20062;-59
2020/12/15 09:25:20;;;;;;;12.10;4.07;;;8.00;99.90;;;;;;5115559;28;20028;-60
2020/12/15 09:27:47;;;;;;;8.87;2.27;;;8.00;99.90;;;;;;5117701;28;20023;-60
2020/12/15 09:30:15;;;;;;;8.97;2.50;;;8.00;99.90;;;;;;5107982;28;20035;-60
2020/12/15 09:32:41;;;;;;;12.67;2.63;;;8.10;99.90;;;;;;5113139;28;20123;-59
2020/12/15 09:35:09;;;;;;;6.53;1.53;;;8.10;99.90;;;;;;5116482;28;20341;-59
2020/12/15 09:37:35;;;;;;;11.30;2.33;;;8.10;99.90;;;;;;5118422;28;20032;-60
2020/12/15 09:40:04;;;;;;;9.13;2.17;;;8.10;99.90;;;;;;5117882;28;20438;-60
2020/12/15 09:42:31;;;;;;;9.87;3.40;;;8.10;99.90;;;;;;5117571;28;20024;-59
2020/12/15 09:44:57;;;;;;;16.13;2.93;;;8.20;99.90;;;;;;5119227;28;20040;-59
2020/12/15 09:47:22;;;;;;;6.77;2.17;;;8.20;99.90;;;;;;5118258;28;20027;-59
2020/12/15 09:49:48;;;;;;;8.00;2.47;;;8.30;99.90;;;;;;5117990;28;20469;-59
2020/12/15 09:52:14;;;;;;;9.43;2.70;;;8.40;99.90;;;;;;5117764;28;20023;-59
2020/12/15 09:54:40;;;;;;;13.70;2.20;;;8.40;99.90;;;;;;5116897;28;20346;-59
2020/12/15 09:57:06;;;;;;;4.53;1.60;;;8.60;99.90;;;;;;5118646;28;20027;-59
2020/12/15 09:59:32;;;;;;;5.53;1.53;;;8.80;99.90;;;;;;5117683;28;20505;-59
2020/12/15 10:01:58;;;;;;;6.30;1.80;;;9.00;99.90;;;;;;5118042;28;20054;-59
2020/12/15 10:04:24;;;;;;;7.23;1.67;;;9.10;99.90;;;;;;5117994;28;20038;-59
2020/12/15 10:06:50;;;;;;;6.10;1.37;;;9.20;99.90;;;;;;5118083;28;20109;-59
2020/12/15 10:09:16;;;;;;;3.33;1.43;;;9.30;99.90;;;;;;5118733;28;20054;-60
2020/12/15 10:11:43;;;;;;;5.33;1.40;;;9.50;99.90;;;;;;5118135;28;20032;-58
2020/12/15 10:14:09;;;;;;;6.90;1.63;;;9.60;99.90;;;;;;5118257;28;20035;-60
2020/12/15 10:16:35;;;;;;;10.70;1.90;;;9.80;99.90;;;;;;5116178;28;20106;-58
2020/12/15 10:19:01;;;;;;;4.20;1.77;;;10.00;99.90;;;;;;5118210;28;20114;-58
2020/12/15 10:21:26;;;;;;;5.27;1.43;;;10.00;99.90;;;;;;5117808;28;20068;-58
2020/12/15 10:23:53;;;;;;;14.40;2.57;;;10.20;99.90;;;;;;5099956;28;20375;-59
2020/12/15 10:26:24;;;;;;;6.00;1.60;;;10.40;99.90;;;;;;5097405;28;20054;-58
2020/12/15 10:28:52;;;;;;;10.83;3.13;;;10.70;99.90;;;;;;5097412;28;20027;-58
2020/12/15 10:31:18;;;;;;;11.80;1.90;;;11.20;99.90;;;;;;5079489;28;20048;-58
2020/12/15 10:33:44;;;;;;;12.63;1.73;;;11.60;99.90;;;;;;5097245;28;20059;-58
2020/12/15 10:36:14;;;;;;;10.67;2.13;;;12.00;99.90;;;;;;5101241;28;20109;-58
2020/12/15 10:38:40;;;;;;;8.43;1.70;;;12.30;99.90;;;;;;5109256;28;20023;-58
2020/12/15 10:41:07;;;;;;;9.10;1.70;;;12.40;99.90;;;;;;5108258;28;20422;-59
2020/12/15 10:43:33;;;;;;;8.70;2.70;;;12.60;99.90;;;;;;5092268;28;20035;-59
2020/12/15 10:45:58;;;;;;;5.90;1.87;;;12.70;99.90;;;;;;5079389;28;20090;-59
2020/12/15 10:48:24;;;;;;;6.40;2.20;;;12.70;99.90;;;;;;5103682;28;20346;-59
2020/12/15 10:50:50;;;;;;;9.63;3.70;;;12.60;99.90;;;;;;5102947;28;20397;-59
2020/12/15 10:53:16;;;;;;;6.77;1.80;;;12.60;99.90;;;;;;5088115;28;20035;-59
2020/12/15 10:55:43;;;;;;;8.40;1.70;;;12.50;99.90;;;;;;5102842;28;20307;-59
2020/12/15 10:58:09;;;;;;;7.30;1.50;;;12.60;99.90;;;;;;5101406;28;20350;-59
2020/12/15 11:00:35;;;;;;;7.38;1.63;;;12.60;99.90;;;;;;5105262;28;20039;-59
2020/12/15 11:03:00;;;;;;;9.63;2.13;;;12.50;99.90;;;;;;5112802;28;20027;-59
2020/12/15 11:05:26;;;;;;;10.17;2.77;;;12.30;99.90;;;;;;5116295;28;20035;-59
2020/12/15 11:07:52;;;;;;;5.03;1.70;;;12.40;99.90;;;;;;5112565;28;20111;-59
2020/12/15 11:10:17;;;;;;;9.57;1.67;;;12.10;99.90;;;;;;5083129;28;20049;-60
2020/12/15 11:12:43;;;;;;;9.53;1.83;;;11.70;99.90;;;;;;5115730;28;20046;-61
2020/12/15 11:15:09;;;;;;;11.37;2.03;;;11.30;99.90;;;;;;5115782;28;20118;-59
2020/12/15 11:17:34;;;;;;;14.77;1.70;;;11.00;99.90;;;;;;5095473;28;20091;-59
2020/12/15 11:20:00;;;;;;;9.60;2.73;;;10.80;99.90;;;;;;5109864;28;20034;-61
2020/12/15 11:22:26;;;;;;;9.30;2.83;;;10.70;99.90;;;;;;5091539;28;20131;-59
2020/12/15 11:24:52;;;;;;;5.70;1.57;;;10.60;99.90;;;;;;5114148;28;20042;-59
2020/12/15 11:27:18;;;;;;;9.67;2.37;;;10.80;99.90;;;;;;5115111;28;20501;-59
2020/12/15 11:29:44;;;;;;;8.43;2.90;;;11.20;99.90;;;;;;5087775;28;20027;-59
2020/12/15 11:32:10;;;;;;;9.40;2.70;;;11.40;99.90;;;;;;5115890;28;20192;-59
2020/12/15 11:34:36;;;;;;;6.10;1.90;;;11.60;99.90;;;;;;5110925;28;20413;-59
2020/12/15 11:37:02;;;;;;;7.40;2.70;;;11.70;99.90;;;;;;5105077;28;20096;-60
2020/12/15 11:39:28;;;;;;;10.47;2.40;;;11.40;99.90;;;;;;5116406;28;20450;-60
2020/12/15 11:41:54;;;;;;;5.60;1.10;;;11.20;99.90;;;;;;5116228;28;20109;-59
2020/12/15 11:44:19;;;;;;;7.23;1.70;;;11.20;99.90;;;;;;5116592;28;20418;-59
2020/12/15 11:46:45;;;;;;;9.70;1.70;;;11.10;99.90;;;;;;5116007;28;20031;-59
2020/12/15 11:49:11;;;;;;;4.07;1.30;;;11.10;99.90;;;;;;5116069;28;20457;-60
2020/12/15 11:51:37;;;;;;;7.43;1.30;;;11.00;99.90;;;;;;5098302;28;20392;-61
2020/12/15 11:54:03;;;;;;;5.53;2.83;;;11.10;99.90;;;;;;5116027;28;20024;-60
2020/12/15 11:56:29;;;;;;;12.87;3.07;;;11.10;99.90;;;;;;5116483;28;20456;-60
2020/12/15 11:58:54;;;;;;;8.53;1.30;;;11.10;99.90;;;;;;5116120;28;20042;-61
2020/12/15 12:01:20;;;;;;;5.30;2.03;;;11.10;99.90;;;;;;5081855;28;20059;-60
2020/12/15 12:03:46;;;;;;;4.67;1.53;;;11.10;99.90;;;;;;5114954;28;20027;-60
2020/12/15 12:06:12;;;;;;;3.90;1.10;;;11.10;99.90;;;;;;5112549;28;20053;-60
2020/12/15 12:08:38;;;;;;;7.50;1.63;;;11.10;99.90;;;;;;5096777;28;20039;-60
2020/12/15 12:11:03;;;;;;;11.77;1.30;;;11.10;99.90;;;;;;5113714;28;20023;-60
2020/12/15 12:13:29;;;;;;;9.77;1.20;;;11.20;99.90;;;;;;5116174;28;20074;-61
2020/12/15 12:15:55;;;;;;;4.80;1.27;;;11.30;99.90;;;;;;5097063;28;20031;-61
2020/12/15 12:18:21;;;;;;;5.97;0.90;;;11.20;99.90;;;;;;5115478;28;20031;-60
2020/12/15 12:20:46;;;;;;;6.40;1.20;;;11.20;99.90;;;;;;5107436;28;20028;-60
2020/12/15 12:23:12;;;;;;;4.73;1.53;;;11.10;99.90;;;;;;5109312;28;20093;-60
2020/12/15 12:25:38;;;;;;;7.80;1.73;;;11.20;99.90;;;;;;5114665;28;20070;-61
2020/12/15 12:28:04;;;;;;;6.07;1.30;;;11.30;99.90;;;;;;5115087;28;20047;-61
2020/12/15 12:30:30;;;;;;;9.07;1.50;;;11.30;99.90;;;;;;5119085;28;20038;-60
2020/12/15 12:32:55;;;;;;;5.33;2.03;;;11.30;99.90;;;;;;5115685;28;20098;-60
2020/12/15 12:35:21;;;;;;;7.73;1.87;;;11.40;99.90;;;;;;5116631;28;20090;-60
2020/12/15 12:37:47;;;;;;;3.80;1.20;;;11.40;99.90;;;;;;5100047;28;20417;-60
2020/12/15 12:40:13;;;;;;;4.73;1.13;;;11.40;99.90;;;;;;5113663;28;20085;-59
2020/12/15 12:42:39;;;;;;;7.60;1.73;;;11.40;99.90;;;;;;5098571;28;20032;-60
2020/12/15 12:45:05;;;;;;;6.27;1.43;;;11.40;99.90;;;;;;5097309;28;20063;-59
2020/12/15 12:47:31;;;;;;;7.50;2.33;;;11.40;99.90;;;;;;5106042;28;20082;-60
2020/12/15 12:49:56;;;;;;;4.93;1.57;;;11.40;99.90;;;;;;5109304;28;20111;-60